Eldorado Springs, Colorado
Current Conditions -  °F | °C
As of 5:16 AM on Wednesday 28 Jan 2015 (Local Time) from KBDU Reporting Station
Clear Clear  
Wind Chill: 44°   Ceiling: Unl
Heat Index: 46°   Visibility: 10mi
Dew Point: 21°   Wind: 5mph
Humidity: 37%   Direction: 230°SW
Pressure: 29.99"   Gusts: NA
Location:  39.93°N, 105.28°W
Report Text: KBDU 281216Z AUTO 23004KT 10SM CLR 08/M06 A2999 RMK AO2
Loading
Personal Weather Stations






























Interactive Weather Map New forecast layout! Learn more

10-Day Weather Forecast

Advertisements
Track Severe Weather on mobile